createdAt,value
2019-01-09T00:01:38.310Z,-5.85
2019-01-09T00:04:07.660Z,-5.80
2019-01-09T00:06:37.124Z,-5.78
2019-01-09T00:09:08.427Z,-5.67
2019-01-09T00:11:37.755Z,-5.50
2019-01-09T00:14:07.435Z,-5.38
2019-01-09T00:16:36.894Z,-5.55
2019-01-09T00:19:06.226Z,-5.64
2019-01-09T00:21:35.667Z,-5.89
2019-01-09T00:24:05.414Z,-6.04
2019-01-09T00:26:35.096Z,-6.05
2019-01-09T00:29:04.727Z,-6.08
2019-01-09T00:31:34.020Z,-6.17
2019-01-09T00:34:03.398Z,-6.20
2019-01-09T00:36:32.708Z,-6.25
2019-01-09T00:39:02.023Z,-6.28
2019-01-09T00:41:31.471Z,-6.12
2019-01-09T00:44:00.798Z,-6.22
2019-01-09T00:46:30.137Z,-6.10
2019-01-09T00:48:59.477Z,-5.92
2019-01-09T00:51:28.849Z,-5.93
2019-01-09T00:53:58.361Z,-6.05
2019-01-09T00:56:27.908Z,-6.04
2019-01-09T00:58:57.332Z,-5.88
2019-01-09T01:01:26.801Z,-5.78
2019-01-09T01:04:37.766Z,-5.76
2019-01-09T01:08:03.216Z,-5.73
2019-01-09T01:11:19.544Z,-5.58
2019-01-09T01:14:26.461Z,-5.43
2019-01-09T01:17:40.673Z,-5.16
2019-01-09T01:20:36.851Z,-5.16
2019-01-09T01:23:43.131Z,-5.18
2019-01-09T01:26:46.445Z,-5.06
2019-01-09T01:29:51.816Z,-4.98
2019-01-09T01:32:58.926Z,-4.91
2019-01-09T01:36:04.272Z,-4.74
2019-01-09T01:39:21.827Z,-4.58
2019-01-09T01:42:14.081Z,-4.55
2019-01-09T01:45:15.343Z,-4.72
2019-01-09T01:48:26.876Z,-4.63
2019-01-09T01:51:32.966Z,-4.46
2019-01-09T01:54:42.229Z,-4.46
2019-01-09T01:57:36.020Z,-4.44
2019-01-09T02:00:41.388Z,-4.38
2019-01-09T02:04:00.627Z,-4.54
2019-01-09T02:07:08.112Z,-4.40
2019-01-09T02:10:07.022Z,-4.29
2019-01-09T02:13:26.220Z,-4.24
2019-01-09T02:16:27.871Z,-4.29
2019-01-09T02:19:37.452Z,-4.42
2019-01-09T02:22:59.999Z,-4.38
2019-01-09T02:25:58.596Z,-4.40
2019-01-09T02:29:05.809Z,-4.49
2019-01-09T02:32:01.421Z,-4.50
2019-01-09T02:34:30.745Z,-4.51
2019-01-09T02:37:00.085Z,-4.42
2019-01-09T02:39:29.415Z,-4.50
2019-01-09T02:41:58.760Z,-4.55
2019-01-09T02:44:32.385Z,-4.58
2019-01-09T02:46:59.143Z,-4.63
2019-01-09T02:49:28.571Z,-4.65
2019-01-09T02:51:57.887Z,-4.68
2019-01-09T02:54:27.238Z,-4.64
2019-01-09T02:56:56.582Z,-4.78
2019-01-09T02:59:25.989Z,-4.72
2019-01-09T03:01:55.361Z,-4.85
2019-01-09T03:04:24.688Z,-4.93
2019-01-09T03:06:54.032Z,-4.97
2019-01-09T03:09:23.329Z,-5.04
2019-01-09T03:11:52.917Z,-5.02
2019-01-09T03:14:22.222Z,-5.01
2019-01-09T03:16:51.531Z,-5.00
2019-01-09T03:19:20.895Z,-5.07
2019-01-09T03:21:50.226Z,-5.06
2019-01-09T03:24:19.624Z,-4.90
2019-01-09T03:26:48.959Z,-4.88
2019-01-09T03:29:18.318Z,-4.85
2019-01-09T03:31:47.622Z,-4.83
2019-01-09T03:34:16.956Z,-4.91
2019-01-09T03:36:46.276Z,-4.81
2019-01-09T03:39:15.577Z,-4.76
2019-01-09T03:41:44.911Z,-4.67
2019-01-09T03:44:14.368Z,-4.77
2019-01-09T03:46:43.782Z,-4.93
2019-01-09T03:49:13.168Z,-4.77
2019-01-09T03:51:42.924Z,-4.68
2019-01-09T03:54:12.259Z,-4.70
2019-01-09T03:56:41.622Z,-4.60
2019-01-09T03:59:11.066Z,-4.59
2019-01-09T04:01:40.431Z,-4.59
2019-01-09T04:04:09.737Z,-4.69
2019-01-09T04:06:41.935Z,-4.70
2019-01-09T04:09:10.136Z,-4.75
2019-01-09T04:11:39.503Z,-4.74
2019-01-09T04:14:08.818Z,-4.60
2019-01-09T04:16:38.124Z,-4.49
2019-01-09T04:19:07.545Z,-4.49
2019-01-09T04:21:36.898Z,-4.50
2019-01-09T04:24:06.300Z,-4.37
2019-01-09T04:26:35.605Z,-4.53
2019-01-09T04:29:04.970Z,-4.44
2019-01-09T04:31:34.285Z,-4.32
2019-01-09T04:34:03.620Z,-4.33
2019-01-09T04:36:32.956Z,-4.29
2019-01-09T04:39:02.347Z,-4.40
2019-01-09T04:41:31.717Z,-4.40
2019-01-09T04:44:01.067Z,-4.50
2019-01-09T04:46:30.466Z,-4.53
2019-01-09T04:48:59.767Z,-4.41
2019-01-09T04:51:29.125Z,-4.29
2019-01-09T04:53:59.418Z,-4.22
2019-01-09T04:56:28.938Z,-4.38
2019-01-09T04:58:58.308Z,-4.42
2019-01-09T05:01:27.698Z,-4.45
2019-01-09T05:03:57.073Z,-4.31
2019-01-09T05:06:26.432Z,-4.30
2019-01-09T05:08:55.781Z,-4.27
2019-01-09T05:11:25.108Z,-4.30
2019-01-09T05:13:54.382Z,-4.28
2019-01-09T05:16:23.690Z,-4.25
2019-01-09T05:18:53.003Z,-4.33
2019-01-09T05:21:22.297Z,-4.29
2019-01-09T05:23:51.639Z,-4.26
2019-01-09T05:26:21.031Z,-4.30
2019-01-09T05:28:50.394Z,-4.27
2019-01-09T05:31:19.715Z,-4.31
2019-01-09T05:33:49.059Z,-4.41
2019-01-09T05:36:18.490Z,-4.44
2019-01-09T05:38:47.870Z,-4.44
2019-01-09T05:41:17.185Z,-4.52
2019-01-09T05:43:46.528Z,-4.46
2019-01-09T05:46:15.872Z,-4.43
2019-01-09T05:48:45.215Z,-4.50
2019-01-09T05:51:14.580Z,-4.57
2019-01-09T05:53:43.896Z,-4.55
2019-01-09T05:56:13.300Z,-4.66
2019-01-09T05:58:42.652Z,-4.62
2019-01-09T06:01:12.053Z,-4.59
2019-01-09T06:03:41.457Z,-4.68
2019-01-09T06:06:10.796Z,-4.67
2019-01-09T06:08:40.180Z,-4.51
2019-01-09T06:11:09.479Z,-4.27
2019-01-09T06:13:38.804Z,-4.07
2019-01-09T06:16:08.160Z,-4.12
2019-01-09T06:18:37.452Z,-4.30
2019-01-09T06:21:06.794Z,-4.28
2019-01-09T06:23:36.115Z,-4.29
2019-01-09T06:26:05.456Z,-4.21
2019-01-09T06:28:34.824Z,-4.15
2019-01-09T06:31:04.156Z,-4.11
2019-01-09T06:33:33.473Z,-3.88
2019-01-09T06:36:03.993Z,-3.70
2019-01-09T06:38:33.484Z,-3.59
2019-01-09T06:41:02.807Z,-3.65
2019-01-09T06:43:32.146Z,-3.83
2019-01-09T06:46:01.477Z,-3.70
2019-01-09T06:48:30.801Z,-3.59
2019-01-09T06:51:00.158Z,-3.54
2019-01-09T06:53:29.513Z,-3.35
2019-01-09T06:55:58.875Z,-3.39
2019-01-09T06:58:30.039Z,-3.13
2019-01-09T07:00:59.450Z,-3.01
2019-01-09T07:03:28.811Z,-3.04
2019-01-09T07:05:58.283Z,-2.76
2019-01-09T07:08:27.617Z,-2.45
2019-01-09T07:10:56.957Z,-2.34
2019-01-09T07:13:26.311Z,-2.16
2019-01-09T07:15:55.656Z,-2.21
2019-01-09T07:18:24.985Z,-1.88
2019-01-09T07:20:54.320Z,-2.22
2019-01-09T07:23:25.599Z,-2.33
2019-01-09T07:25:54.717Z,-1.76
2019-01-09T07:28:24.035Z,-1.25
2019-01-09T07:30:53.430Z,-0.97
2019-01-09T07:33:22.755Z,-1.21
2019-01-09T07:35:52.536Z,-1.40
2019-01-09T07:38:21.874Z,-1.20
2019-01-09T07:40:52.185Z,-1.57
2019-01-09T07:43:21.577Z,-1.99
2019-01-09T07:45:51.011Z,-1.88
2019-01-09T07:48:20.335Z,-1.45
2019-01-09T07:50:49.698Z,-1.65
2019-01-09T07:53:18.998Z,-2.01
2019-01-09T07:55:48.280Z,-2.09
2019-01-09T07:58:17.645Z,-2.33
2019-01-09T08:00:47.179Z,-2.49
2019-01-09T08:03:16.529Z,-2.66
2019-01-09T08:05:45.871Z,-2.86
2019-01-09T08:08:16.202Z,-3.10
2019-01-09T08:10:45.543Z,-3.27
2019-01-09T08:13:14.933Z,-3.10
2019-01-09T08:15:44.306Z,-3.11
2019-01-09T08:18:13.649Z,-3.14
2019-01-09T08:20:42.990Z,-3.21
2019-01-09T08:23:12.378Z,-3.42
2019-01-09T08:25:41.745Z,-3.51
2019-01-09T08:28:11.039Z,-3.43
2019-01-09T08:30:40.441Z,-3.40
2019-01-09T08:33:10.921Z,-3.46
2019-01-09T08:35:40.299Z,-3.38
2019-01-09T08:38:09.665Z,-3.03
2019-01-09T08:40:38.983Z,-3.04
2019-01-09T08:43:08.322Z,-2.94
2019-01-09T08:45:37.775Z,-2.66
2019-01-09T08:48:07.155Z,-2.72
2019-01-09T08:50:36.499Z,-2.96
2019-01-09T08:53:05.806Z,-2.92
2019-01-09T08:55:35.107Z,-2.87
2019-01-09T08:58:04.464Z,-2.68
2019-01-09T09:00:33.827Z,-2.36
2019-01-09T09:03:03.277Z,-2.25
2019-01-09T09:05:32.660Z,-1.99
2019-01-09T09:08:11.748Z,-2.02
2019-01-09T09:10:35.312Z,-2.15
2019-01-09T09:13:04.673Z,-2.03
2019-01-09T09:15:33.999Z,-1.93
2019-01-09T09:18:03.293Z,-2.16
2019-01-09T09:20:32.650Z,-2.15
2019-01-09T09:23:01.998Z,-2.19
2019-01-09T09:25:31.323Z,-2.19
2019-01-09T09:28:00.687Z,-2.14
2019-01-09T09:30:30.115Z,-1.99
2019-01-09T09:32:59.486Z,-1.90
2019-01-09T09:35:28.853Z,-2.00
2019-01-09T09:37:58.218Z,-2.14
2019-01-09T09:40:27.692Z,-2.01
2019-01-09T09:42:57.067Z,-2.00
2019-01-09T09:45:26.441Z,-1.84
2019-01-09T09:47:55.761Z,-1.86
2019-01-09T09:50:25.078Z,-2.09
2019-01-09T09:52:54.458Z,-2.32
2019-01-09T09:55:25.161Z,-1.99
2019-01-09T09:57:54.491Z,-1.93
2019-01-09T10:00:24.088Z,-2.25
2019-01-09T10:02:54.252Z,-2.08
2019-01-09T10:05:23.880Z,-1.89
2019-01-09T10:07:53.341Z,-1.70
2019-01-09T10:10:22.789Z,-1.72
2019-01-09T10:12:52.453Z,-1.80
2019-01-09T10:15:22.312Z,-1.90
2019-01-09T10:17:54.406Z,-1.87
2019-01-09T10:20:23.852Z,-1.92
2019-01-09T10:22:53.240Z,-1.90
2019-01-09T10:25:22.606Z,-1.93
2019-01-09T10:27:51.891Z,-1.81
2019-01-09T10:30:24.363Z,-1.69
2019-01-09T10:32:53.719Z,-1.54
2019-01-09T10:35:23.025Z,-1.37
2019-01-09T10:37:52.553Z,-1.26
2019-01-09T10:40:22.054Z,-1.14
2019-01-09T10:42:51.641Z,-1.05
2019-01-09T10:45:22.389Z,-0.90
2019-01-09T10:47:51.724Z,-0.78
2019-01-09T10:50:21.073Z,-0.83
2019-01-09T10:52:50.409Z,-0.85
2019-01-09T10:55:20.374Z,-0.83
2019-01-09T10:57:49.702Z,-0.96
2019-01-09T11:00:24.561Z,-1.00
2019-01-09T11:02:54.330Z,-0.87
2019-01-09T11:05:23.980Z,-0.94
2019-01-09T11:07:53.325Z,-0.89
2019-01-09T11:10:23.006Z,-0.91
2019-01-09T11:12:52.399Z,-0.87
2019-01-09T11:15:21.804Z,-1.08
2019-01-09T11:17:51.106Z,-1.15
2019-01-09T11:20:21.502Z,-1.07
2019-01-09T11:22:50.815Z,-1.05
2019-01-09T11:25:22.300Z,-1.00
2019-01-09T11:27:51.820Z,-1.02
2019-01-09T11:30:21.268Z,-0.98
2019-01-09T11:32:50.735Z,-0.99
2019-01-09T11:35:22.195Z,-0.93
2019-01-09T11:37:53.000Z,-0.97
2019-01-09T11:40:22.626Z,-1.14
2019-01-09T11:42:52.072Z,-1.11
2019-01-09T11:45:21.534Z,-1.10
2019-01-09T11:47:50.865Z,-1.11
2019-01-09T11:50:20.223Z,-1.05
2019-01-09T11:52:49.676Z,-0.98
2019-01-09T11:55:19.045Z,-0.93
2019-01-09T11:57:48.390Z,-1.16
2019-01-09T12:00:23.291Z,-1.33
2019-01-09T12:02:52.632Z,-1.37
2019-01-09T12:05:22.159Z,-1.27
2019-01-09T12:07:51.614Z,-1.23
2019-01-09T12:10:29.866Z,-1.27
2019-01-09T12:12:53.424Z,-1.50
2019-01-09T12:15:22.948Z,-1.59
2019-01-09T12:17:52.274Z,-1.49
2019-01-09T12:20:21.743Z,-1.51
2019-01-09T12:22:51.125Z,-1.55
2019-01-09T12:25:20.498Z,-1.31
2019-01-09T12:27:49.813Z,-1.45
2019-01-09T12:30:27.446Z,-1.72
2019-01-09T12:32:56.893Z,-1.72
2019-01-09T12:35:26.199Z,-1.65
2019-01-09T12:37:55.508Z,-1.58
2019-01-09T12:40:25.131Z,-1.40
2019-01-09T12:42:55.717Z,-1.53
2019-01-09T12:45:25.035Z,-1.54
2019-01-09T12:47:54.403Z,-1.49
2019-01-09T12:50:25.429Z,-1.55
2019-01-09T12:52:54.787Z,-1.60
2019-01-09T12:55:24.317Z,-1.60
2019-01-09T12:57:53.645Z,-1.51
2019-01-09T13:00:25.382Z,-1.37
2019-01-09T13:02:54.930Z,-1.36
2019-01-09T13:05:24.631Z,-1.40
2019-01-09T13:07:54.512Z,-1.37
2019-01-09T13:10:23.901Z,-1.29
2019-01-09T13:12:53.285Z,-1.23
2019-01-09T13:15:22.598Z,-1.12
2019-01-09T13:17:52.203Z,-1.13
2019-01-09T13:20:21.509Z,-1.16
2019-01-09T13:22:50.900Z,-1.09
2019-01-09T13:25:20.223Z,-1.09
2019-01-09T13:27:49.561Z,-1.23
2019-01-09T13:30:23.665Z,-1.25
2019-01-09T13:32:53.058Z,-1.17
2019-01-09T13:35:22.399Z,-1.17
2019-01-09T13:37:51.744Z,-1.24
2019-01-09T13:40:21.680Z,-1.21
2019-01-09T13:42:51.128Z,-1.16
2019-01-09T13:45:22.061Z,-1.19
2019-01-09T13:47:51.537Z,-1.23
2019-01-09T13:50:21.139Z,-1.29
2019-01-09T13:52:50.888Z,-1.30
2019-01-09T13:55:20.340Z,-1.34
2019-01-09T13:57:49.969Z,-1.35
2019-01-09T14:00:21.515Z,-1.40
2019-01-09T14:02:50.890Z,-1.44
2019-01-09T14:05:20.419Z,-1.46
2019-01-09T14:07:49.888Z,-1.59
2019-01-09T14:10:24.432Z,-1.59
2019-01-09T14:12:53.760Z,-1.59
2019-01-09T14:15:23.247Z,-1.62
2019-01-09T14:17:52.615Z,-1.63
2019-01-09T14:20:22.074Z,-1.79
2019-01-09T14:22:51.398Z,-1.79
2019-01-09T14:25:20.808Z,-1.84
2019-01-09T14:27:50.403Z,-1.91
2019-01-09T14:30:24.984Z,-1.96
2019-01-09T14:32:54.352Z,-1.98
2019-01-09T14:35:23.952Z,-2.07
2019-01-09T14:37:53.333Z,-2.03
2019-01-09T14:40:23.363Z,-2.00
2019-01-09T14:42:52.659Z,-2.10
2019-01-09T14:45:22.214Z,-2.09
2019-01-09T14:47:51.615Z,-2.03
2019-01-09T14:50:23.607Z,-2.01
2019-01-09T14:52:53.643Z,-2.00
2019-01-09T14:55:23.091Z,-1.98
2019-01-09T14:57:53.028Z,-2.00
2019-01-09T15:00:24.484Z,-2.05
2019-01-09T15:02:54.045Z,-2.00
2019-01-09T15:05:23.643Z,-2.10
2019-01-09T15:07:53.080Z,-2.10
2019-01-09T15:10:24.769Z,-2.10
2019-01-09T15:12:54.194Z,-2.07
2019-01-09T15:15:23.534Z,-1.92
2019-01-09T15:17:52.995Z,-1.90
2019-01-09T15:20:22.521Z,-1.95
2019-01-09T15:22:51.850Z,-1.90
2019-01-09T15:25:21.193Z,-1.95
2019-01-09T15:27:50.602Z,-1.99
2019-01-09T15:30:26.617Z,-1.94
2019-01-09T15:32:56.398Z,-1.98
2019-01-09T15:35:25.967Z,-1.98
2019-01-09T15:37:55.304Z,-1.95
2019-01-09T15:40:29.175Z,-2.07
2019-01-09T15:42:58.515Z,-2.14
2019-01-09T15:45:29.439Z,-2.16
2019-01-09T15:47:58.796Z,-2.11
2019-01-09T15:50:28.716Z,-2.08
2019-01-09T15:52:58.025Z,-2.10
2019-01-09T15:55:27.352Z,-2.15
2019-01-09T15:57:56.753Z,-2.10
2019-01-09T16:00:34.969Z,-2.11
2019-01-09T16:03:04.605Z,-2.10
2019-01-09T16:05:33.979Z,-2.22
2019-01-09T16:08:03.385Z,-2.20
2019-01-09T16:10:32.836Z,-2.32
2019-01-09T16:13:02.162Z,-2.33
2019-01-09T16:15:31.535Z,-2.36
2019-01-09T16:18:00.889Z,-2.38
2019-01-09T16:20:30.281Z,-2.38
2019-01-09T16:22:59.611Z,-2.33
2019-01-09T16:25:28.933Z,-2.32
2019-01-09T16:27:58.277Z,-2.29
2019-01-09T16:30:50.915Z,-2.29
2019-01-09T16:33:20.306Z,-2.32
2019-01-09T16:35:49.713Z,-2.38
2019-01-09T16:38:19.089Z,-2.40
2019-01-09T16:40:48.513Z,-2.43
2019-01-09T16:43:17.860Z,-2.44
2019-01-09T16:45:47.324Z,-2.40
2019-01-09T16:48:16.681Z,-2.49
2019-01-09T16:50:46.007Z,-2.47
2019-01-09T16:53:15.351Z,-2.40
2019-01-09T16:55:44.729Z,-2.47
2019-01-09T16:58:14.084Z,-2.46
2019-01-09T17:00:43.686Z,-2.52
2019-01-09T17:03:13.449Z,-2.45
2019-01-09T17:05:42.753Z,-2.50
2019-01-09T17:08:12.086Z,-2.47
2019-01-09T17:10:41.414Z,-2.54
2019-01-09T17:13:10.831Z,-3.88
2019-01-09T17:15:40.168Z,-2.63
2019-01-09T17:18:09.628Z,-2.62
2019-01-09T17:20:38.975Z,-2.64
2019-01-09T17:23:08.351Z,-2.58
2019-01-09T17:25:37.743Z,-2.49
2019-01-09T17:28:07.633Z,-2.39
2019-01-09T17:30:37.141Z,-2.39
2019-01-09T17:33:07.368Z,-2.45
2019-01-09T17:35:36.913Z,-2.44
2019-01-09T17:38:06.351Z,-2.38
2019-01-09T17:40:40.968Z,-2.41
2019-01-09T17:43:07.322Z,-2.40
2019-01-09T17:45:36.627Z,-2.42
2019-01-09T17:48:06.631Z,-2.46
2019-01-09T17:50:37.027Z,-2.49
2019-01-09T17:53:06.711Z,-2.45
2019-01-09T17:55:36.074Z,-2.49
2019-01-09T17:58:05.499Z,-2.38
2019-01-09T18:00:37.377Z,-2.33
2019-01-09T18:03:06.825Z,-2.34
2019-01-09T18:05:36.266Z,-2.42
2019-01-09T18:08:10.933Z,-2.48
2019-01-09T18:10:37.237Z,-2.43
2019-01-09T18:13:06.957Z,-2.45
2019-01-09T18:15:36.317Z,-2.45
2019-01-09T18:18:06.259Z,-2.43
2019-01-09T18:20:35.619Z,-2.37
2019-01-09T18:23:05.072Z,-2.31
2019-01-09T18:25:34.430Z,-2.25
2019-01-09T18:28:03.785Z,-2.21
2019-01-09T18:30:39.216Z,-2.23
2019-01-09T18:33:29.377Z,-2.25
2019-01-09T18:36:20.477Z,-2.28
2019-01-09T18:39:34.771Z,-2.45
2019-01-09T18:42:16.634Z,-2.51
2019-01-09T18:45:14.076Z,-2.51
2019-01-09T18:48:35.273Z,-2.56
2019-01-09T18:51:39.909Z,-2.61
2019-01-09T18:54:09.244Z,-2.89
2019-01-09T18:56:44.950Z,-3.17
2019-01-09T18:59:20.006Z,-3.27
2019-01-09T19:01:49.386Z,-3.27
2019-01-09T19:04:18.788Z,-3.30
2019-01-09T19:06:48.229Z,-3.41
2019-01-09T19:09:17.618Z,-3.31
2019-01-09T19:11:50.640Z,-3.15
2019-01-09T19:14:18.177Z,-3.07
2019-01-09T19:16:47.581Z,-3.16
2019-01-09T19:19:16.990Z,-3.20
2019-01-09T19:21:46.520Z,-3.23
2019-01-09T19:24:16.480Z,-3.25
2019-01-09T19:26:45.855Z,-3.27
2019-01-09T19:29:15.229Z,-3.24
2019-01-09T19:31:44.580Z,-3.26
2019-01-09T19:34:13.973Z,-3.33
2019-01-09T19:36:43.371Z,-3.25
2019-01-09T19:39:12.794Z,-3.14
2019-01-09T19:41:42.619Z,-3.12
2019-01-09T19:44:12.491Z,-3.14
2019-01-09T19:46:41.912Z,-3.13
2019-01-09T19:49:11.294Z,-3.14
2019-01-09T19:51:40.698Z,-4.60
2019-01-09T19:54:10.110Z,-3.13
2019-01-09T19:56:40.447Z,-3.07
2019-01-09T19:59:09.840Z,-3.08
2019-01-09T20:01:39.575Z,-4.38
2019-01-09T20:04:09.389Z,-3.11
2019-01-09T20:06:38.857Z,-3.15
2019-01-09T20:09:09.873Z,-3.15
2019-01-09T20:11:39.373Z,-3.13
2019-01-09T20:14:08.802Z,-3.09
2019-01-09T20:16:39.733Z,-3.07
2019-01-09T20:19:09.251Z,-3.10
2019-01-09T20:21:43.450Z,-3.05
2019-01-09T20:24:12.867Z,-3.06
2019-01-09T20:26:42.283Z,-3.08
2019-01-09T20:29:13.982Z,-3.10
2019-01-09T20:32:00.435Z,-3.04
2019-01-09T20:34:29.839Z,-3.07
2019-01-09T20:37:03.423Z,-3.03
2019-01-09T20:39:35.164Z,-3.03
2019-01-09T20:42:04.601Z,-2.98
2019-01-09T20:44:35.281Z,-3.01
2019-01-09T20:47:15.271Z,-2.98
2019-01-09T20:49:45.350Z,-2.99
2019-01-09T20:52:24.158Z,-3.05
2019-01-09T20:54:54.045Z,-3.06
2019-01-09T20:57:24.177Z,-2.94
2019-01-09T20:59:56.851Z,-2.92
2019-01-09T21:02:26.243Z,-2.88
2019-01-09T21:04:56.888Z,-2.99
2019-01-09T21:07:29.155Z,-2.98
2019-01-09T21:09:58.589Z,-3.00
2019-01-09T21:12:28.212Z,-3.02
2019-01-09T21:14:57.671Z,-3.03
2019-01-09T21:17:27.060Z,-3.04
2019-01-09T21:19:56.365Z,-3.01
2019-01-09T21:22:26.057Z,-3.02
2019-01-09T21:24:55.409Z,-2.92
2019-01-09T21:27:24.830Z,-2.86
2019-01-09T21:29:54.236Z,-2.82
2019-01-09T21:32:23.642Z,-2.80
2019-01-09T21:34:53.080Z,-2.86
2019-01-09T21:37:22.514Z,-2.83
2019-01-09T21:39:51.928Z,-2.78
2019-01-09T21:42:21.268Z,-2.78
2019-01-09T21:44:50.624Z,-2.86
2019-01-09T21:47:20.001Z,-2.86
2019-01-09T21:49:49.330Z,-2.92
2019-01-09T21:52:19.017Z,-2.89
2019-01-09T21:54:48.366Z,-2.86
2019-01-09T21:57:17.663Z,-2.92
2019-01-09T21:59:47.788Z,-2.91
2019-01-09T22:02:17.087Z,-2.86
2019-01-09T22:04:46.735Z,-2.88
2019-01-09T22:07:16.096Z,-2.91
2019-01-09T22:09:45.408Z,-2.97
2019-01-09T22:12:15.106Z,-3.11
2019-01-09T22:14:47.191Z,-3.13
2019-01-09T22:17:16.691Z,-3.12
2019-01-09T22:19:46.373Z,-3.13
2019-01-09T22:22:15.732Z,-3.19
2019-01-09T22:24:45.271Z,-3.15
2019-01-09T22:27:14.649Z,-3.13
2019-01-09T22:29:44.012Z,-3.08
2019-01-09T22:32:13.370Z,-3.05
2019-01-09T22:34:42.733Z,-3.04
2019-01-09T22:37:12.540Z,-3.08
2019-01-09T22:39:42.975Z,-3.09
2019-01-09T22:42:12.385Z,-3.11
2019-01-09T22:44:41.694Z,-3.08
2019-01-09T22:47:11.104Z,-3.04
2019-01-09T22:49:40.417Z,-3.03
2019-01-09T22:52:09.766Z,-3.07
2019-01-09T22:54:39.120Z,-3.13
2019-01-09T22:57:08.496Z,-3.06
2019-01-09T22:59:37.842Z,-3.08
2019-01-09T23:02:08.143Z,-3.07
2019-01-09T23:04:37.458Z,-2.95
2019-01-09T23:07:06.799Z,-2.96
2019-01-09T23:09:37.129Z,-2.86
2019-01-09T23:12:06.545Z,-2.92
2019-01-09T23:14:37.676Z,-2.83
2019-01-09T23:17:07.130Z,-2.80
2019-01-09T23:19:37.303Z,-2.88
2019-01-09T23:22:08.914Z,-2.98
2019-01-09T23:24:38.354Z,-2.95
2019-01-09T23:27:08.412Z,-2.88
2019-01-09T23:29:37.778Z,-3.01
2019-01-09T23:32:07.135Z,-3.01
2019-01-09T23:34:36.507Z,-3.06
2019-01-09T23:37:05.985Z,-3.00
2019-01-09T23:39:35.375Z,-3.04
2019-01-09T23:42:05.113Z,-3.09
2019-01-09T23:44:34.448Z,-3.10
2019-01-09T23:47:04.178Z,-3.00
2019-01-09T23:49:33.520Z,-3.02
2019-01-09T23:52:02.949Z,-3.09
2019-01-09T23:54:32.308Z,-3.05
2019-01-09T23:57:01.693Z,-3.00
2019-01-09T23:59:31.086Z,-3.04
